AirNav   Everest Fuels
 
 1411 users online  

15MI Grant Pad Heliport
Fraser, Michigan, USA

GOING TO FRASER?


FAA INFORMATION EFFECTIVE 05 DECEMBER 2019

Location

FAA Identifier: 15MI
Lat/Long: 42-32-40.1260N 082-55-53.7120W
42-32.668767N 082-55.895200W
42.5444794,-82.9315867
(estimated)
Elevation: 638 ft. / 194 m (estimated)
Variation: 06W (1985)
From city: 1 mile NE of FRASER, MI
Time zone: UTC -5 (UTC -4 during Daylight Saving Time)
Zip code: 48026

Heliport Operations

Heliport use: Private use. Permission required prior to landing
Activation date: 02/1987
Control tower: no
ARTCC: CLEVELAND CENTER
FSS: LANSING FLIGHT SERVICE STATION
Attendance: UNATNDD
Wind indicator: yes
Segmented circle: no

Heliport Communications

WX ASOS at DET (9 nm SW): PHONE 313-371-9696
WX AWOS-3 at VLL (11 nm W): 119.475 (248-288-4649)

Nearby radio navigation aids

VOR radial/distance  VOR name  Freq  Var
YQGr352/18.3WINDSOR VOR/DME113.8006W
DXOr050/27.7DETROIT VOR/DME113.4006W
SVMr077/30.4SALEM VORTAC114.3003W
CRLr041/37.8CARLETON VOR/DME115.7003W

 
NDB name  Hdg/Dist  Freq  Var  ID
GROSSE ILE027/28.441907WRYS .-. -.-- ...

Heliport Services

Runway Information

Helipad H1

Dimensions: 30 x 30 ft. / 9 x 9 m
Surface: concrete
Traffic pattern: leftleft

Heliport Ownership and Management from official FAA records

Ownership: Privately-owned
Owner: GRANT INDUSTRIES, INC.
33415 GROESBECK HWY
FRASER, MI 48026
Phone 586-293-9200
Manager: STEVEN GRANT
33415 GROESBECK HWY
FRASER, MI 48026
Phone 586-293-9200

Additional Remarks

A33 ROOFTOP.
FOR CD CTC CLEVELAND ARTCC AT 440-774-0490.

Instrument Procedures

There are no published instrument procedures at 15MI.

Some nearby airports with instrument procedures:

KMTC - Selfridge Air National Guard Base (6 nm NE)
KDET - Coleman A Young Municipal Airport (9 nm SW)
KVLL - Oakland/Troy Airport (11 nm W)
57D - Ray Community Airport (12 nm N)
D98 - Romeo State Airport (15 nm N)
 
Loc | Ops | Rwys | IFR | FBO | Links
Com | Nav | Svcs | Stats | Notes
Area around 15MI (Grant Pad Heliport)
 
Road maps at: MapQuest Bing Google
 
Aerial photo
No photo
 
Sectional chart

 
Airport distance calculator
Flying to Grant Pad Heliport? Find the distance to fly.

From to 15MI

Sunrise and sunset
Times for 09-Dec-2019
 Local
(UTC-5)
 Zulu
(UTC)
Morning civil twilight07:1912:19
Sunrise07:5112:51
Sunset16:5721:57
Evening civil twilight17:2922:29

Current date and time
Zulu (UTC)  09-Dec-2019 19:49:54
Local (UTC-5)  09-Dec-2019 14:49:54
 
METAR
KMTC 
7nm NE 
091508Z 17012KT 4SM -RA FEW005 BKN009 OVC024 07/07 A2961 RMK AO2A SLP034
KDET 
9nm SW 
091853Z 21012KT 6SM -RA BR FEW009 OVC014 09/09 A2945 RMK AO2 PK WND 20026/1807 RAE04B25 SLP973 P0000 T00940089
KVLL 
11nm W 
091936Z AUTO 22008KT 10SM RA BKN010 OVC014 10/09 A2944 RMK AO2 T00970092
CYQG 
16nm S 
091933Z AUTO 22011G21KT 9SM 10/09 A2944 RMK CLD MISG SLP975
TAF
KMTC 
7nm NE 
091310Z 0913/1015 17010KT 9000 -RA SCT028 OVC049 QNH2959INS BECMG 0914/0915 18009KT 6000 -RA OVC015 510009 QNH2943INS BECMG 0915/0916 18009KT 6000 -RA OVC009 510009 QNH2943INS BECMG 0922/0923 22009KT 8000 -RA OVC015 QNH2944INS BECMG 1003/1004 23009KT 9999 NSW OVC020 QNH2945INS BECMG 1009/1010 29012G18KT 9999 BKN030 510009 QNH2969INS TX09/0921Z TNM02/1008Z
KDET 
9nm SW 
091720Z 0918/1018 21011G19KT 3SM -DZ BR OVC005 FM092300 22012G20KT 5SM -DZ BR BKN008 OVC018 FM100400 26014G26KT P6SM OVC022 FM100700 27015G26KT P6SM BKN028 OVC040 FM101200 29012G22KT P6SM OVC045
CYQG 
16nm S 
091744Z 0918/1018 FCST NOT AVBL DUE CLD HGT SENSOR INOP RMK FCST BASED ON AUTO OBS. NXT FCST BY 100000Z
NOTAMs
Click for the latest NOTAMs
NOTAMs are issued by the DoD/FAA and will open in a separate window not controlled by AirNav.

 

 
 

Would you like to see your business listed on this page?

 If your business provides an interesting product or service to pilots, flight crews, aircraft, or users of the Grant Pad Heliport, you should consider listing it here.  To start the listing process, click on the button below
 
Add a business
 

Other Pages about Grant Pad Heliport

Update a link
 
Copyright © AirNav, LLC. All rights reserved. Privacy Policy  Contact